Terminal Aerodrome Forecast
Issued by NWS

Home | Current Version | Previous Version | Text Only | Print | Product List | Glossary On
Versions: 1 2 3 4 5 6 7 8 9 10 11 12 13 14
000
FTUS42 KTBW 241127
TAFRSW
TAF
KRSW 241127Z 2412/2512 36005KT P6SM BKN008
     FM241500 03007KT P6SM SCT020
     FM241900 32006KT P6SM SCT040
     FM250600 VRB03KT P6SM SCT005 BKN035=

USA.gov is the U.S. government's official web portal to all federal, state and local government web resources and services.